createdAt,value
2019-02-17T00:01:48.859Z,10.57
2019-02-17T00:04:35.980Z,11.23
2019-02-17T00:07:23.307Z,10.57
2019-02-17T00:10:10.825Z,11.27
2019-02-17T00:12:58.453Z,11.03
2019-02-17T00:15:45.772Z,10.47
2019-02-17T00:18:33.402Z,10.77
2019-02-17T00:21:20.929Z,10.97
2019-02-17T00:24:08.772Z,11.33
2019-02-17T00:26:56.408Z,11.40
2019-02-17T00:29:44.021Z,10.67
2019-02-17T00:32:31.750Z,11.27
2019-02-17T00:35:18.973Z,11.30
2019-02-17T00:38:06.701Z,10.80
2019-02-17T00:40:54.536Z,11.20
2019-02-17T00:43:42.339Z,11.20
2019-02-17T00:46:30.000Z,11.17
2019-02-17T00:49:17.702Z,10.77
2019-02-17T00:52:05.334Z,11.10
2019-02-17T00:54:52.887Z,10.87
2019-02-17T00:57:41.211Z,10.60
2019-02-17T01:00:28.547Z,10.37
2019-02-17T01:03:16.287Z,11.30
2019-02-17T01:06:03.499Z,9.77
2019-02-17T01:08:50.821Z,11.23
2019-02-17T01:11:38.143Z,11.87
2019-02-17T01:14:25.683Z,11.17
2019-02-17T01:17:12.964Z,11.57
2019-02-17T01:20:00.435Z,11.70
2019-02-17T01:22:47.840Z,10.77
2019-02-17T01:25:35.171Z,9.77
2019-02-17T01:28:22.593Z,10.17
2019-02-17T01:31:10.118Z,10.50
2019-02-17T01:33:57.545Z,10.93
2019-02-17T01:36:45.072Z,11.23
2019-02-17T01:39:32.689Z,10.80
2019-02-17T01:42:20.934Z,10.07
2019-02-17T01:45:09.583Z,10.07
2019-02-17T01:47:56.610Z,11.10
2019-02-17T01:50:44.108Z,10.63
2019-02-17T01:53:31.661Z,10.50
2019-02-17T01:56:19.091Z,10.70
2019-02-17T01:59:06.816Z,10.47
2019-02-17T02:01:54.387Z,10.93
2019-02-17T02:04:42.075Z,11.03
2019-02-17T02:07:29.505Z,10.50
2019-02-17T02:10:17.023Z,10.40
2019-02-17T02:13:04.142Z,10.70
2019-02-17T02:15:51.871Z,11.23
2019-02-17T02:18:39.401Z,11.83
2019-02-17T02:21:26.585Z,10.37
2019-02-17T02:24:14.349Z,11.03
2019-02-17T02:27:01.672Z,12.67
2019-02-17T02:29:49.403Z,13.03
2019-02-17T02:32:36.827Z,13.50
2019-02-17T02:35:24.261Z,13.60
2019-02-17T02:38:13.559Z,12.07
2019-02-17T02:41:01.153Z,11.10
2019-02-17T02:43:48.407Z,10.77
2019-02-17T02:46:36.202Z,10.87
2019-02-17T02:49:23.315Z,11.03
2019-02-17T02:52:10.951Z,10.90
2019-02-17T02:54:58.474Z,10.80
2019-02-17T02:57:45.795Z,11.30
2019-02-17T03:00:33.527Z,12.37
2019-02-17T03:03:21.255Z,12.63
2019-02-17T03:06:10.625Z,11.57
2019-02-17T03:08:57.845Z,11.53
2019-02-17T03:11:45.270Z,11.50
2019-02-17T03:14:32.611Z,11.70
2019-02-17T03:17:20.322Z,11.77
2019-02-17T03:20:09.638Z,11.43
2019-02-17T03:22:56.708Z,12.73
2019-02-17T03:25:45.289Z,12.43
2019-02-17T03:28:33.292Z,12.33
2019-02-17T03:31:21.033Z,12.90
2019-02-17T03:34:08.556Z,11.67
2019-02-17T03:36:56.182Z,12.10
2019-02-17T03:39:44.329Z,12.57
2019-02-17T03:42:31.232Z,12.13
2019-02-17T03:45:18.764Z,12.67
2019-02-17T03:48:06.289Z,12.80
2019-02-17T03:50:53.627Z,12.20
2019-02-17T03:53:41.134Z,12.90
2019-02-17T03:56:28.968Z,12.07
2019-02-17T03:59:16.527Z,13.50
2019-02-17T04:02:04.280Z,12.67
2019-02-17T04:04:51.958Z,13.00
2019-02-17T04:07:39.287Z,12.40
2019-02-17T04:10:28.571Z,12.37
2019-02-17T04:13:15.571Z,11.97
2019-02-17T04:16:02.881Z,11.83
2019-02-17T04:18:50.203Z,12.43
2019-02-17T04:21:38.041Z,12.07
2019-02-17T04:24:25.462Z,11.90
2019-02-17T04:27:12.785Z,11.90
2019-02-17T04:30:00.674Z,12.00
2019-02-17T04:32:48.050Z,10.93
2019-02-17T04:35:35.470Z,12.03
2019-02-17T04:38:22.996Z,11.70
2019-02-17T04:41:10.830Z,13.30
2019-02-17T04:43:58.252Z,13.57
2019-02-17T04:46:45.371Z,12.70
2019-02-17T04:49:33.101Z,12.50
2019-02-17T04:52:20.731Z,13.47
2019-02-17T04:55:08.764Z,11.93
2019-02-17T04:57:56.294Z,12.43
2019-02-17T05:00:44.341Z,13.03
2019-02-17T05:03:31.654Z,12.37
2019-02-17T05:06:18.975Z,12.50
2019-02-17T05:09:06.807Z,13.20
2019-02-17T05:11:53.928Z,12.63
2019-02-17T05:14:41.040Z,12.60
2019-02-17T05:17:28.885Z,13.03
2019-02-17T05:20:16.613Z,12.23
2019-02-17T05:23:04.137Z,13.10
2019-02-17T05:25:51.802Z,13.90
2019-02-17T05:28:39.505Z,13.97
2019-02-17T05:31:27.326Z,14.73
2019-02-17T05:34:15.163Z,12.90
2019-02-17T05:37:02.180Z,13.50
2019-02-17T05:39:49.398Z,14.07
2019-02-17T05:42:37.235Z,14.00
2019-02-17T05:45:24.958Z,16.30
2019-02-17T05:48:12.593Z,15.90
2019-02-17T05:51:00.318Z,14.67
2019-02-17T05:53:48.054Z,13.97
2019-02-17T05:56:35.583Z,14.57
2019-02-17T05:59:22.670Z,14.87
2019-02-17T06:02:10.325Z,14.90
2019-02-17T06:04:57.857Z,15.13
2019-02-17T06:07:45.181Z,13.70
2019-02-17T06:10:32.799Z,14.07
2019-02-17T06:13:20.326Z,15.33
2019-02-17T06:16:07.753Z,17.07
2019-02-17T06:18:55.175Z,14.37
2019-02-17T06:21:43.217Z,13.27
2019-02-17T06:24:31.155Z,13.37
2019-02-17T06:27:19.692Z,14.37
2019-02-17T06:30:09.200Z,13.40
2019-02-17T06:32:57.007Z,13.47
2019-02-17T06:35:44.428Z,13.47
2019-02-17T06:38:31.956Z,13.70
2019-02-17T06:41:19.380Z,13.50
2019-02-17T06:44:06.702Z,14.23
2019-02-17T06:46:55.456Z,14.67
2019-02-17T06:49:42.677Z,15.57
2019-02-17T06:52:29.998Z,15.43
2019-02-17T06:55:28.380Z,14.20
2019-02-17T06:58:16.109Z,14.60
2019-02-17T07:01:03.444Z,15.87
2019-02-17T07:03:51.066Z,14.83
2019-02-17T07:06:39.874Z,16.13
2019-02-17T07:09:27.242Z,15.30
2019-02-17T07:12:14.873Z,14.03
2019-02-17T07:15:02.193Z,14.43
2019-02-17T07:17:49.619Z,14.50
2019-02-17T07:20:37.039Z,15.93
2019-02-17T07:23:24.876Z,15.57
2019-02-17T07:26:12.501Z,15.77
2019-02-17T07:28:59.818Z,15.27
2019-02-17T07:31:47.351Z,17.00
2019-02-17T07:34:34.884Z,16.40
2019-02-17T07:37:32.723Z,16.37
2019-02-17T07:40:11.466Z,14.77
2019-02-17T07:42:58.890Z,14.50
2019-02-17T07:45:46.318Z,14.73
2019-02-17T07:48:33.737Z,15.43
2019-02-17T07:51:21.060Z,15.27
2019-02-17T07:54:08.789Z,15.73
2019-02-17T07:56:55.922Z,15.07
2019-02-17T07:59:43.333Z,14.80
2019-02-17T08:02:30.550Z,14.97
2019-02-17T08:05:18.602Z,15.00
2019-02-17T08:08:06.012Z,19.57
2019-02-17T08:11:03.444Z,17.83
2019-02-17T08:13:42.806Z,17.70
2019-02-17T08:16:30.639Z,16.13
2019-02-17T08:19:18.375Z,15.70
2019-02-17T08:22:05.836Z,15.27
2019-02-17T08:24:53.526Z,15.23
2019-02-17T08:27:41.155Z,14.33
2019-02-17T08:30:28.578Z,14.80
2019-02-17T08:33:15.798Z,14.93
2019-02-17T08:36:03.427Z,15.10
2019-02-17T08:38:51.057Z,15.50
2019-02-17T08:41:38.584Z,14.33
2019-02-17T08:44:26.426Z,15.70
2019-02-17T08:47:14.251Z,16.20
2019-02-17T08:50:01.701Z,14.90
2019-02-17T08:52:49.104Z,15.00
2019-02-17T08:55:36.841Z,15.40
2019-02-17T08:58:24.253Z,14.37
2019-02-17T09:01:11.369Z,14.40
2019-02-17T09:03:58.617Z,15.07
2019-02-17T09:06:46.014Z,14.27
2019-02-17T09:09:33.550Z,13.90
2019-02-17T09:12:21.479Z,15.00
2019-02-17T09:15:12.649Z,14.53
2019-02-17T09:18:00.630Z,15.07
2019-02-17T09:20:48.005Z,16.63
2019-02-17T09:23:35.781Z,15.67
2019-02-17T09:26:23.408Z,15.60
2019-02-17T09:29:11.556Z,15.57
2019-02-17T09:31:59.560Z,15.50
2019-02-17T09:34:47.218Z,15.10
2019-02-17T09:37:34.643Z,17.93
2019-02-17T09:40:22.475Z,23.97
2019-02-17T09:43:09.875Z,45.83
2019-02-17T09:45:57.529Z,22.63
2019-02-17T09:48:44.953Z,21.10
2019-02-17T09:51:32.278Z,22.37
2019-02-17T09:54:20.021Z,24.10
2019-02-17T09:57:07.839Z,21.50
2019-02-17T09:59:55.371Z,22.87
2019-02-17T10:02:42.790Z,20.37
2019-02-17T10:05:30.120Z,20.80
2019-02-17T10:08:17.848Z,19.70
2019-02-17T10:11:16.441Z,18.67
2019-02-17T10:14:03.861Z,19.77
2019-02-17T10:16:51.381Z,21.60
2019-02-17T10:19:38.668Z,19.50
2019-02-17T10:22:26.021Z,19.90
2019-02-17T10:25:13.241Z,18.87
2019-02-17T10:28:00.874Z,21.68
2019-02-17T10:30:48.498Z,19.07
2019-02-17T10:33:36.493Z,19.27
2019-02-17T10:36:24.169Z,18.03
2019-02-17T10:39:11.804Z,19.03
2019-02-17T10:41:59.223Z,19.10
2019-02-17T10:44:47.097Z,17.97
2019-02-17T10:47:34.888Z,18.13
2019-02-17T10:50:22.577Z,18.30
2019-02-17T10:53:09.949Z,17.90
2019-02-17T10:55:57.588Z,17.77
2019-02-17T10:58:45.507Z,17.37
2019-02-17T11:01:32.622Z,17.70
2019-02-17T11:04:20.046Z,18.13
2019-02-17T11:07:07.573Z,17.80
2019-02-17T11:09:55.822Z,17.50
2019-02-17T11:12:43.643Z,17.27
2019-02-17T11:15:30.982Z,16.83
2019-02-17T11:18:18.599Z,17.27
2019-02-17T11:21:05.927Z,16.93
2019-02-17T11:23:53.608Z,16.87
2019-02-17T11:26:41.588Z,16.27
2019-02-17T11:29:29.424Z,15.60
2019-02-17T11:32:16.847Z,16.93
2019-02-17T11:35:05.521Z,16.23
2019-02-17T11:37:53.232Z,15.87
2019-02-17T11:40:41.215Z,15.50
2019-02-17T11:43:28.604Z,15.77
2019-02-17T11:46:16.016Z,16.17
2019-02-17T11:49:03.543Z,16.30
2019-02-17T11:51:50.766Z,15.87
2019-02-17T11:54:37.880Z,15.20
2019-02-17T11:57:25.200Z,16.00
2019-02-17T12:00:18.268Z,16.10
2019-02-17T12:03:08.330Z,15.33
2019-02-17T12:05:55.054Z,15.97
2019-02-17T12:08:46.879Z,15.10
2019-02-17T12:11:34.207Z,15.13
2019-02-17T12:14:21.829Z,15.10
2019-02-17T12:17:09.767Z,13.57
2019-02-17T12:19:59.243Z,12.93
2019-02-17T12:22:48.309Z,12.37
2019-02-17T12:25:40.949Z,12.27
2019-02-17T12:28:36.257Z,11.70
2019-02-17T12:31:25.012Z,11.43
2019-02-17T12:34:12.435Z,11.60
2019-02-17T12:37:00.167Z,10.90
2019-02-17T12:39:47.799Z,11.03
2019-02-17T12:42:35.434Z,10.50
2019-02-17T12:45:22.747Z,10.40
2019-02-17T12:48:10.078Z,10.57
2019-02-17T12:50:57.287Z,10.53
2019-02-17T12:53:45.019Z,10.20
2019-02-17T12:56:32.143Z,10.37
2019-02-17T12:59:19.670Z,10.50
2019-02-17T13:02:07.197Z,9.87
2019-02-17T13:04:54.513Z,11.00
2019-02-17T13:07:42.900Z,11.03
2019-02-17T13:10:30.286Z,14.60
2019-02-17T13:13:17.891Z,11.33
2019-02-17T13:16:05.640Z,12.13
2019-02-17T13:18:53.576Z,21.27
2019-02-17T13:21:41.017Z,11.50
2019-02-17T13:24:28.425Z,15.30
2019-02-17T13:27:16.236Z,11.90
2019-02-17T13:30:05.149Z,17.10
2019-02-17T13:32:52.436Z,13.47
2019-02-17T13:35:39.555Z,16.90
2019-02-17T13:38:27.183Z,15.07
2019-02-17T13:41:14.828Z,11.93
2019-02-17T13:44:02.546Z,12.03
2019-02-17T13:46:49.868Z,12.30
2019-02-17T13:49:37.420Z,11.70
2019-02-17T13:52:25.126Z,11.73
2019-02-17T13:55:13.008Z,12.37
2019-02-17T13:58:00.592Z,11.43
2019-02-17T14:00:48.628Z,11.30
2019-02-17T14:03:36.052Z,11.30
2019-02-17T14:06:23.682Z,10.90
2019-02-17T14:09:11.504Z,10.33
2019-02-17T14:11:59.147Z,10.27
2019-02-17T14:14:46.462Z,9.97
2019-02-17T14:17:33.785Z,10.47
2019-02-17T14:20:21.236Z,10.57
2019-02-17T14:23:08.738Z,10.27
2019-02-17T14:25:56.260Z,9.97
2019-02-17T14:28:43.995Z,10.60
2019-02-17T14:31:31.623Z,11.30
2019-02-17T14:34:19.460Z,10.83
2019-02-17T14:37:06.986Z,10.40
2019-02-17T14:39:54.615Z,10.90
2019-02-17T14:42:42.242Z,11.00
2019-02-17T14:45:29.673Z,10.57
2019-02-17T14:48:16.989Z,10.93
2019-02-17T14:51:06.255Z,11.07
2019-02-17T14:53:54.193Z,10.90
2019-02-17T14:56:41.925Z,11.77
2019-02-17T14:59:29.068Z,10.73
2019-02-17T15:02:16.157Z,11.00
2019-02-17T15:05:03.614Z,10.50
2019-02-17T15:07:51.315Z,10.40
2019-02-17T15:10:38.740Z,10.20
2019-02-17T15:13:25.974Z,10.17
2019-02-17T15:16:13.288Z,10.10
2019-02-17T15:19:00.805Z,9.83
2019-02-17T15:21:49.464Z,10.20
2019-02-17T15:24:38.733Z,9.20
2019-02-17T15:27:26.204Z,9.43
2019-02-17T15:30:17.793Z,9.47
2019-02-17T15:33:05.301Z,11.10
2019-02-17T15:35:52.829Z,10.67
2019-02-17T15:38:41.074Z,10.77
2019-02-17T15:41:28.712Z,10.73
2019-02-17T15:44:16.227Z,11.90
2019-02-17T15:47:03.651Z,12.40
2019-02-17T15:49:50.874Z,12.63
2019-02-17T15:52:38.722Z,12.43
2019-02-17T15:55:26.334Z,12.23
2019-02-17T15:58:14.067Z,12.20
2019-02-17T16:01:01.392Z,12.40
2019-02-17T16:03:49.127Z,13.43
2019-02-17T16:06:36.552Z,22.90
2019-02-17T16:09:25.910Z,18.50
2019-02-17T16:12:13.336Z,15.17
2019-02-17T16:15:00.761Z,13.40
2019-02-17T16:17:48.048Z,12.57
2019-02-17T16:20:35.713Z,13.47
2019-02-17T16:23:22.684Z,12.33
2019-02-17T16:26:10.148Z,12.20
2019-02-17T16:28:57.783Z,11.90
2019-02-17T16:31:45.107Z,11.57
2019-02-17T16:34:38.470Z,12.07
2019-02-17T16:37:21.508Z,12.47
2019-02-17T16:40:14.377Z,12.13
2019-02-17T16:43:01.972Z,11.77
2019-02-17T16:45:49.493Z,11.57
2019-02-17T16:48:37.120Z,11.50
2019-02-17T16:51:24.545Z,11.30
2019-02-17T16:54:12.277Z,11.23
2019-02-17T16:56:59.706Z,12.17
2019-02-17T16:59:47.109Z,12.57
2019-02-17T17:02:34.787Z,13.10
2019-02-17T17:05:23.256Z,14.20
2019-02-17T17:08:10.707Z,14.00
2019-02-17T17:10:58.372Z,13.53
2019-02-17T17:13:46.294Z,12.93
2019-02-17T17:16:33.514Z,14.63
2019-02-17T17:19:21.143Z,13.20
2019-02-17T17:22:08.775Z,15.07
2019-02-17T17:24:56.297Z,13.87
2019-02-17T17:27:43.517Z,14.27
2019-02-17T17:30:31.248Z,16.87
2019-02-17T17:33:18.403Z,18.53
2019-02-17T17:36:06.096Z,15.07
2019-02-17T17:38:53.830Z,13.33
2019-02-17T17:41:41.563Z,15.13
2019-02-17T17:44:29.200Z,16.30
2019-02-17T17:47:16.313Z,14.53
2019-02-17T17:50:04.042Z,16.40
2019-02-17T17:52:51.051Z,16.40
2019-02-17T17:55:38.272Z,16.90
2019-02-17T17:58:25.566Z,16.53
2019-02-17T18:01:13.062Z,29.60
2019-02-17T18:04:01.167Z,27.43
2019-02-17T18:06:48.281Z,17.13
2019-02-17T18:09:35.805Z,14.67
2019-02-17T18:12:23.226Z,13.80
2019-02-17T18:15:17.849Z,13.20
2019-02-17T18:18:05.361Z,14.37
2019-02-17T18:20:52.995Z,13.83
2019-02-17T18:23:40.303Z,14.30
2019-02-17T18:26:27.734Z,12.77
2019-02-17T18:29:15.538Z,13.77
2019-02-17T18:32:02.984Z,13.90
2019-02-17T18:34:51.533Z,19.07
2019-02-17T18:37:38.645Z,17.60
2019-02-17T18:40:26.483Z,17.13
2019-02-17T18:43:14.211Z,16.37
2019-02-17T18:46:01.225Z,17.57
2019-02-17T18:48:49.056Z,19.53
2019-02-17T18:51:36.588Z,20.27
2019-02-17T18:54:24.931Z,19.07
2019-02-17T18:57:11.948Z,21.43
2019-02-17T18:59:59.986Z,20.20
2019-02-17T19:02:47.563Z,24.67
2019-02-17T19:05:34.426Z,30.33
2019-02-17T19:08:22.155Z,28.67
2019-02-17T19:11:10.139Z,74.20
2019-02-17T19:13:59.052Z,31.67
2019-02-17T19:16:46.094Z,18.93
2019-02-17T19:19:33.802Z,17.33
2019-02-17T19:22:21.736Z,16.27
2019-02-17T19:25:10.241Z,17.40
2019-02-17T19:27:57.766Z,16.00
2019-02-17T19:30:44.930Z,16.90
2019-02-17T19:33:32.353Z,17.33
2019-02-17T19:36:20.107Z,16.60
2019-02-17T19:39:07.624Z,16.53
2019-02-17T19:41:55.238Z,16.03
2019-02-17T19:44:42.670Z,17.60
2019-02-17T19:47:30.094Z,16.60
2019-02-17T19:50:18.047Z,16.60
2019-02-17T19:53:05.660Z,17.23
2019-02-17T19:55:53.183Z,16.23
2019-02-17T19:58:40.297Z,16.93
2019-02-17T20:01:28.141Z,16.30
2019-02-17T20:04:25.497Z,16.67
2019-02-17T20:07:13.733Z,16.20
2019-02-17T20:10:01.345Z,15.80
2019-02-17T20:12:48.626Z,15.53
2019-02-17T20:15:36.004Z,15.17
2019-02-17T20:18:23.530Z,16.90
2019-02-17T20:21:10.988Z,17.50
2019-02-17T20:23:58.491Z,17.20
2019-02-17T20:26:47.299Z,15.97
2019-02-17T20:29:34.970Z,16.73
2019-02-17T20:32:22.292Z,16.70
2019-02-17T20:35:10.229Z,15.90
2019-02-17T20:37:57.663Z,16.57
2019-02-17T20:40:45.383Z,17.00
2019-02-17T20:43:32.600Z,17.47
2019-02-17T20:46:20.254Z,17.20
2019-02-17T20:49:07.765Z,17.23
2019-02-17T20:51:54.786Z,16.17
2019-02-17T20:54:42.308Z,17.10
2019-02-17T20:57:29.623Z,17.80
2019-02-17T21:00:22.569Z,15.30
2019-02-17T21:03:09.609Z,15.43
2019-02-17T21:05:57.098Z,16.30
2019-02-17T21:08:44.448Z,16.17
2019-02-17T21:11:31.970Z,15.23
2019-02-17T21:14:19.291Z,16.20
2019-02-17T21:17:07.846Z,16.27
2019-02-17T21:19:55.361Z,16.37
2019-02-17T21:22:43.195Z,15.67
2019-02-17T21:25:30.622Z,17.13
2019-02-17T21:28:17.842Z,17.33
2019-02-17T21:31:05.058Z,17.07
2019-02-17T21:33:52.584Z,15.47
2019-02-17T21:36:39.606Z,15.63
2019-02-17T21:39:28.252Z,15.67
2019-02-17T21:42:15.267Z,14.80
2019-02-17T21:45:02.795Z,14.90
2019-02-17T21:47:50.327Z,17.17
2019-02-17T21:50:38.773Z,15.00
2019-02-17T21:53:26.541Z,17.13
2019-02-17T21:56:13.960Z,16.20
2019-02-17T21:59:01.047Z,15.70
2019-02-17T22:01:48.676Z,16.10
2019-02-17T22:04:36.408Z,16.83
2019-02-17T22:07:26.898Z,15.67
2019-02-17T22:10:23.337Z,16.10
2019-02-17T22:13:11.067Z,16.77
2019-02-17T22:16:05.963Z,16.63
2019-02-17T22:18:53.609Z,16.50
2019-02-17T22:21:41.357Z,17.03
2019-02-17T22:24:28.748Z,16.87
2019-02-17T22:27:16.480Z,16.37
2019-02-17T22:30:04.008Z,25.40
2019-02-17T22:32:51.430Z,17.63
2019-02-17T22:35:39.061Z,31.10
2019-02-17T22:38:26.179Z,18.67
2019-02-17T22:41:13.806Z,21.83
2019-02-17T22:44:01.641Z,22.73
2019-02-17T22:46:49.369Z,21.77
2019-02-17T22:49:36.798Z,20.83
2019-02-17T22:52:24.127Z,20.30
2019-02-17T22:55:12.260Z,18.33
2019-02-17T22:57:59.990Z,18.70
2019-02-17T23:00:59.190Z,19.50
2019-02-17T23:03:46.624Z,17.73
2019-02-17T23:06:34.672Z,18.50
2019-02-17T23:09:22.284Z,18.17
2019-02-17T23:12:09.845Z,18.57
2019-02-17T23:14:57.644Z,18.77
2019-02-17T23:17:45.475Z,17.63
2019-02-17T23:20:32.899Z,18.87
2019-02-17T23:23:20.016Z,17.53
2019-02-17T23:26:07.516Z,17.90
2019-02-17T23:28:55.072Z,18.37
2019-02-17T23:31:42.400Z,16.97
2019-02-17T23:34:29.802Z,18.03
2019-02-17T23:37:17.582Z,17.83
2019-02-17T23:40:07.938Z,17.20
2019-02-17T23:42:55.161Z,17.70
2019-02-17T23:45:44.579Z,16.87
2019-02-17T23:48:32.270Z,16.93
2019-02-17T23:51:19.479Z,17.30
2019-02-17T23:54:07.712Z,17.47
2019-02-17T23:56:55.249Z,18.53
2019-02-17T23:59:48.716Z,18.73
